sensor_id;sensor_type;location;lat;lon;timestamp;P1;durP1;ratioP1;P2;durP2;ratioP2
19043;SDS011;9654;52.302;8.120;2023-08-21T00:00:28;2.10;;;1.63;;
19043;SDS011;9654;52.302;8.120;2023-08-21T00:02:54;3.63;;;1.87;;
19043;SDS011;9654;52.302;8.120;2023-08-21T00:05:21;4.53;;;1.60;;
19043;SDS011;9654;52.302;8.120;2023-08-21T00:07:48;3.10;;;1.53;;
19043;SDS011;9654;52.302;8.120;2023-08-21T00:10:17;5.33;;;1.77;;
19043;SDS011;9654;52.302;8.120;2023-08-21T00:12:44;6.17;;;2.17;;
19043;SDS011;9654;52.302;8.120;2023-08-21T00:15:11;3.93;;;1.80;;
19043;SDS011;9654;52.302;8.120;2023-08-21T00:17:37;5.90;;;1.47;;
19043;SDS011;9654;52.302;8.120;2023-08-21T00:20:05;6.00;;;1.70;;
19043;SDS011;9654;52.302;8.120;2023-08-21T00:22:34;7.30;;;1.67;;
19043;SDS011;9654;52.302;8.120;2023-08-21T00:25:01;5.90;;;2.47;;
19043;SDS011;9654;52.302;8.120;2023-08-21T00:27:30;5.90;;;2.37;;
19043;SDS011;9654;52.302;8.120;2023-08-21T00:29:57;5.00;;;1.87;;
19043;SDS011;9654;52.302;8.120;2023-08-21T00:32:26;2.90;;;1.63;;
19043;SDS011;9654;52.302;8.120;2023-08-21T00:34:53;2.73;;;1.70;;
19043;SDS011;9654;52.302;8.120;2023-08-21T00:37:20;4.53;;;1.93;;
19043;SDS011;9654;52.302;8.120;2023-08-21T00:39:47;5.07;;;2.40;;
19043;SDS011;9654;52.302;8.120;2023-08-21T00:42:13;3.73;;;1.63;;
19043;SDS011;9654;52.302;8.120;2023-08-21T00:44:41;2.23;;;1.50;;
19043;SDS011;9654;52.302;8.120;2023-08-21T00:47:08;5.10;;;2.13;;
19043;SDS011;9654;52.302;8.120;2023-08-21T00:49:35;4.37;;;2.33;;
19043;SDS011;9654;52.302;8.120;2023-08-21T00:52:03;3.43;;;1.90;;
19043;SDS011;9654;52.302;8.120;2023-08-21T00:54:31;5.07;;;2.37;;
19043;SDS011;9654;52.302;8.120;2023-08-21T00:56:58;4.97;;;2.30;;
19043;SDS011;9654;52.302;8.120;2023-08-21T00:59:25;2.97;;;1.77;;
19043;SDS011;9654;52.302;8.120;2023-08-21T01:01:53;3.07;;;1.80;;
19043;SDS011;9654;52.302;8.120;2023-08-21T01:04:20;2.00;;;1.83;;
19043;SDS011;9654;52.302;8.120;2023-08-21T01:06:47;1.77;;;1.67;;
19043;SDS011;9654;52.302;8.120;2023-08-21T01:09:16;5.83;;;1.70;;
19043;SDS011;9654;52.302;8.120;2023-08-21T01:11:49;3.73;;;1.80;;
19043;SDS011;9654;52.302;8.120;2023-08-21T01:14:22;4.30;;;1.90;;
19043;SDS011;9654;52.302;8.120;2023-08-21T01:16:58;3.13;;;1.57;;
19043;SDS011;9654;52.302;8.120;2023-08-21T01:19:30;2.57;;;1.30;;
19043;SDS011;9654;52.302;8.120;2023-08-21T01:22:01;4.00;;;1.60;;
19043;SDS011;9654;52.302;8.120;2023-08-21T01:24:29;2.57;;;1.60;;
19043;SDS011;9654;52.302;8.120;2023-08-21T01:26:56;2.70;;;1.60;;
19043;SDS011;9654;52.302;8.120;2023-08-21T01:29:23;2.77;;;1.60;;
19043;SDS011;9654;52.302;8.120;2023-08-21T01:31:51;1.83;;;1.30;;
19043;SDS011;9654;52.302;8.120;2023-08-21T01:34:24;4.03;;;1.67;;
19043;SDS011;9654;52.302;8.120;2023-08-21T01:36:52;9.37;;;2.13;;
19043;SDS011;9654;52.302;8.120;2023-08-21T01:39:19;4.57;;;1.67;;
19043;SDS011;9654;52.302;8.120;2023-08-21T01:41:47;5.67;;;1.67;;
19043;SDS011;9654;52.302;8.120;2023-08-21T01:44:14;3.07;;;1.37;;
19043;SDS011;9654;52.302;8.120;2023-08-21T01:46:41;2.00;;;1.20;;
19043;SDS011;9654;52.302;8.120;2023-08-21T01:49:08;2.13;;;1.50;;
19043;SDS011;9654;52.302;8.120;2023-08-21T01:51:34;3.37;;;1.53;;
19043;SDS011;9654;52.302;8.120;2023-08-21T01:54:01;4.10;;;1.77;;
19043;SDS011;9654;52.302;8.120;2023-08-21T01:56:28;4.77;;;1.93;;
19043;SDS011;9654;52.302;8.120;2023-08-21T01:58:56;6.67;;;2.50;;
19043;SDS011;9654;52.302;8.120;2023-08-21T02:01:23;4.77;;;1.80;;
19043;SDS011;9654;52.302;8.120;2023-08-21T02:03:49;2.93;;;1.80;;
19043;SDS011;9654;52.302;8.120;2023-08-21T02:06:16;3.00;;;1.57;;
19043;SDS011;9654;52.302;8.120;2023-08-21T02:08:43;3.67;;;1.80;;
19043;SDS011;9654;52.302;8.120;2023-08-21T02:11:10;4.90;;;1.73;;
19043;SDS011;9654;52.302;8.120;2023-08-21T02:13:37;5.30;;;2.10;;
19043;SDS011;9654;52.302;8.120;2023-08-21T02:16:05;4.97;;;1.70;;
19043;SDS011;9654;52.302;8.120;2023-08-21T02:18:31;3.50;;;1.73;;
19043;SDS011;9654;52.302;8.120;2023-08-21T02:21:00;3.43;;;2.17;;
19043;SDS011;9654;52.302;8.120;2023-08-21T02:23:26;5.27;;;1.90;;
19043;SDS011;9654;52.302;8.120;2023-08-21T02:25:53;2.00;;;1.50;;
19043;SDS011;9654;52.302;8.120;2023-08-21T02:28:20;2.10;;;1.70;;
19043;SDS011;9654;52.302;8.120;2023-08-21T02:30:47;3.03;;;1.57;;
19043;SDS011;9654;52.302;8.120;2023-08-21T02:33:15;2.77;;;1.90;;
19043;SDS011;9654;52.302;8.120;2023-08-21T02:35:42;3.73;;;1.80;;
19043;SDS011;9654;52.302;8.120;2023-08-21T02:38:09;1.73;;;1.37;;
19043;SDS011;9654;52.302;8.120;2023-08-21T02:40:35;5.30;;;1.57;;
19043;SDS011;9654;52.302;8.120;2023-08-21T02:43:02;3.23;;;1.50;;
19043;SDS011;9654;52.302;8.120;2023-08-21T02:45:29;2.30;;;1.40;;
19043;SDS011;9654;52.302;8.120;2023-08-21T02:47:56;2.87;;;2.00;;
19043;SDS011;9654;52.302;8.120;2023-08-21T02:50:24;6.07;;;2.20;;
19043;SDS011;9654;52.302;8.120;2023-08-21T02:52:51;3.87;;;1.83;;
19043;SDS011;9654;52.302;8.120;2023-08-21T02:55:18;3.73;;;2.00;;
19043;SDS011;9654;52.302;8.120;2023-08-21T02:57:45;6.10;;;2.07;;
19043;SDS011;9654;52.302;8.120;2023-08-21T03:00:12;4.67;;;1.80;;
19043;SDS011;9654;52.302;8.120;2023-08-21T03:02:39;3.67;;;2.00;;
19043;SDS011;9654;52.302;8.120;2023-08-21T03:05:08;5.13;;;1.90;;
19043;SDS011;9654;52.302;8.120;2023-08-21T03:07:36;10.00;;;2.63;;
19043;SDS011;9654;52.302;8.120;2023-08-21T03:10:04;3.50;;;1.70;;
19043;SDS011;9654;52.302;8.120;2023-08-21T03:12:31;7.13;;;2.20;;
19043;SDS011;9654;52.302;8.120;2023-08-21T03:14:58;4.93;;;2.10;;
19043;SDS011;9654;52.302;8.120;2023-08-21T03:17:25;4.47;;;2.30;;
19043;SDS011;9654;52.302;8.120;2023-08-21T03:19:52;3.03;;;1.70;;
19043;SDS011;9654;52.302;8.120;2023-08-21T03:22:18;8.90;;;1.93;;
19043;SDS011;9654;52.302;8.120;2023-08-21T03:24:46;6.00;;;2.27;;
19043;SDS011;9654;52.302;8.120;2023-08-21T03:27:14;4.37;;;1.80;;
19043;SDS011;9654;52.302;8.120;2023-08-21T03:29:42;1.87;;;1.57;;
19043;SDS011;9654;52.302;8.120;2023-08-21T03:32:13;5.33;;;2.00;;
19043;SDS011;9654;52.302;8.120;2023-08-21T03:34:40;4.67;;;2.40;;
19043;SDS011;9654;52.302;8.120;2023-08-21T03:37:07;5.03;;;1.73;;
19043;SDS011;9654;52.302;8.120;2023-08-21T03:39:33;4.93;;;1.90;;
19043;SDS011;9654;52.302;8.120;2023-08-21T03:42:02;5.20;;;1.90;;
19043;SDS011;9654;52.302;8.120;2023-08-21T03:44:29;4.43;;;1.80;;
19043;SDS011;9654;52.302;8.120;2023-08-21T03:46:56;2.57;;;1.70;;
19043;SDS011;9654;52.302;8.120;2023-08-21T03:49:22;3.03;;;1.53;;
19043;SDS011;9654;52.302;8.120;2023-08-21T03:51:49;2.23;;;1.73;;
19043;SDS011;9654;52.302;8.120;2023-08-21T03:54:16;5.47;;;1.57;;
19043;SDS011;9654;52.302;8.120;2023-08-21T03:56:42;2.90;;;1.73;;
19043;SDS011;9654;52.302;8.120;2023-08-21T03:59:10;3.93;;;1.87;;
19043;SDS011;9654;52.302;8.120;2023-08-21T04:01:37;4.73;;;1.80;;
19043;SDS011;9654;52.302;8.120;2023-08-21T04:04:04;3.13;;;1.87;;
19043;SDS011;9654;52.302;8.120;2023-08-21T04:06:31;6.50;;;2.30;;
19043;SDS011;9654;52.302;8.120;2023-08-21T04:08:58;3.03;;;2.00;;
19043;SDS011;9654;52.302;8.120;2023-08-21T04:11:25;2.57;;;1.73;;
19043;SDS011;9654;52.302;8.120;2023-08-21T04:13:53;5.40;;;2.13;;
19043;SDS011;9654;52.302;8.120;2023-08-21T04:16:21;4.67;;;2.00;;
19043;SDS011;9654;52.302;8.120;2023-08-21T04:18:48;3.70;;;1.80;;
19043;SDS011;9654;52.302;8.120;2023-08-21T04:21:15;2.20;;;2.00;;
19043;SDS011;9654;52.302;8.120;2023-08-21T04:23:43;1.90;;;1.47;;
19043;SDS011;9654;52.302;8.120;2023-08-21T04:26:10;2.40;;;1.80;;
19043;SDS011;9654;52.302;8.120;2023-08-21T04:28:37;3.07;;;2.03;;
19043;SDS011;9654;52.302;8.120;2023-08-21T04:31:04;1.80;;;1.40;;
19043;SDS011;9654;52.302;8.120;2023-08-21T04:33:33;2.73;;;1.80;;
19043;SDS011;9654;52.302;8.120;2023-08-21T04:36:00;7.87;;;2.07;;
19043;SDS011;9654;52.302;8.120;2023-08-21T04:38:27;2.20;;;1.97;;
19043;SDS011;9654;52.302;8.120;2023-08-21T04:40:54;3.90;;;1.73;;
19043;SDS011;9654;52.302;8.120;2023-08-21T04:43:20;4.33;;;1.80;;
19043;SDS011;9654;52.302;8.120;2023-08-21T04:45:47;5.57;;;2.07;;
19043;SDS011;9654;52.302;8.120;2023-08-21T04:48:15;4.80;;;2.13;;
19043;SDS011;9654;52.302;8.120;2023-08-21T04:50:43;4.33;;;2.33;;
19043;SDS011;9654;52.302;8.120;2023-08-21T04:53:11;2.20;;;2.03;;
19043;SDS011;9654;52.302;8.120;2023-08-21T04:55:38;3.87;;;1.77;;
19043;SDS011;9654;52.302;8.120;2023-08-21T04:58:06;4.93;;;2.20;;
19043;SDS011;9654;52.302;8.120;2023-08-21T05:00:33;3.97;;;2.10;;
19043;SDS011;9654;52.302;8.120;2023-08-21T05:03:00;4.33;;;2.20;;
19043;SDS011;9654;52.302;8.120;2023-08-21T05:05:26;2.77;;;1.80;;
19043;SDS011;9654;52.302;8.120;2023-08-21T05:07:55;3.00;;;2.07;;
19043;SDS011;9654;52.302;8.120;2023-08-21T05:10:21;6.00;;;1.90;;
19043;SDS011;9654;52.302;8.120;2023-08-21T05:12:48;4.57;;;2.20;;
19043;SDS011;9654;52.302;8.120;2023-08-21T05:15:15;5.60;;;2.40;;
19043;SDS011;9654;52.302;8.120;2023-08-21T05:17:42;2.57;;;2.10;;
19043;SDS011;9654;52.302;8.120;2023-08-21T05:20:09;3.50;;;2.07;;
19043;SDS011;9654;52.302;8.120;2023-08-21T05:22:38;4.70;;;2.07;;
19043;SDS011;9654;52.302;8.120;2023-08-21T05:25:07;3.90;;;1.90;;
19043;SDS011;9654;52.302;8.120;2023-08-21T05:27:34;2.17;;;1.90;;
19043;SDS011;9654;52.302;8.120;2023-08-21T05:30:01;4.83;;;2.60;;
19043;SDS011;9654;52.302;8.120;2023-08-21T05:32:29;4.07;;;2.00;;
19043;SDS011;9654;52.302;8.120;2023-08-21T05:34:56;4.90;;;2.27;;
19043;SDS011;9654;52.302;8.120;2023-08-21T05:37:22;2.00;;;1.90;;
19043;SDS011;9654;52.302;8.120;2023-08-21T05:39:50;1.93;;;1.70;;
19043;SDS011;9654;52.302;8.120;2023-08-21T05:42:18;5.10;;;2.30;;
19043;SDS011;9654;52.302;8.120;2023-08-21T05:44:45;4.20;;;2.00;;
19043;SDS011;9654;52.302;8.120;2023-08-21T05:47:12;3.47;;;2.17;;
19043;SDS011;9654;52.302;8.120;2023-08-21T05:49:39;2.60;;;1.90;;
19043;SDS011;9654;52.302;8.120;2023-08-21T05:52:05;3.73;;;2.20;;
19043;SDS011;9654;52.302;8.120;2023-08-21T05:54:34;5.70;;;2.67;;
19043;SDS011;9654;52.302;8.120;2023-08-21T05:57:01;4.23;;;2.47;;
19043;SDS011;9654;52.302;8.120;2023-08-21T05:59:31;2.63;;;2.30;;
19043;SDS011;9654;52.302;8.120;2023-08-21T06:01:58;5.37;;;2.57;;
19043;SDS011;9654;52.302;8.120;2023-08-21T06:04:25;6.53;;;2.53;;
19043;SDS011;9654;52.302;8.120;2023-08-21T06:06:52;7.90;;;2.33;;
19043;SDS011;9654;52.302;8.120;2023-08-21T06:09:19;5.50;;;2.40;;
19043;SDS011;9654;52.302;8.120;2023-08-21T06:11:46;5.23;;;2.07;;
19043;SDS011;9654;52.302;8.120;2023-08-21T06:14:13;5.73;;;2.00;;
19043;SDS011;9654;52.302;8.120;2023-08-21T06:16:41;4.37;;;2.20;;
19043;SDS011;9654;52.302;8.120;2023-08-21T06:19:08;3.83;;;2.00;;
19043;SDS011;9654;52.302;8.120;2023-08-21T06:21:35;6.07;;;2.10;;
19043;SDS011;9654;52.302;8.120;2023-08-21T06:24:02;4.77;;;2.27;;
19043;SDS011;9654;52.302;8.120;2023-08-21T06:26:29;5.27;;;2.20;;
19043;SDS011;9654;52.302;8.120;2023-08-21T06:28:56;4.30;;;2.07;;
19043;SDS011;9654;52.302;8.120;2023-08-21T06:31:23;8.30;;;2.33;;
19043;SDS011;9654;52.302;8.120;2023-08-21T06:33:51;5.43;;;2.20;;
19043;SDS011;9654;52.302;8.120;2023-08-21T06:36:18;6.00;;;2.00;;
19043;SDS011;9654;52.302;8.120;2023-08-21T06:38:44;7.70;;;2.07;;
19043;SDS011;9654;52.302;8.120;2023-08-21T06:41:11;3.03;;;1.73;;
19043;SDS011;9654;52.302;8.120;2023-08-21T06:43:38;3.40;;;2.00;;
19043;SDS011;9654;52.302;8.120;2023-08-21T06:46:05;4.17;;;2.00;;
19043;SDS011;9654;52.302;8.120;2023-08-21T06:48:31;7.67;;;2.13;;
19043;SDS011;9654;52.302;8.120;2023-08-21T06:51:00;4.97;;;1.80;;
19043;SDS011;9654;52.302;8.120;2023-08-21T06:53:27;2.90;;;1.90;;
19043;SDS011;9654;52.302;8.120;2023-08-21T06:55:54;6.20;;;2.30;;
19043;SDS011;9654;52.302;8.120;2023-08-21T06:58:21;6.97;;;2.20;;
19043;SDS011;9654;52.302;8.120;2023-08-21T07:00:48;3.40;;;2.13;;
19043;SDS011;9654;52.302;8.120;2023-08-21T07:03:15;6.17;;;2.07;;
19043;SDS011;9654;52.302;8.120;2023-08-21T07:05:45;5.50;;;1.77;;
19043;SDS011;9654;52.302;8.120;2023-08-21T07:08:14;4.33;;;1.80;;
19043;SDS011;9654;52.302;8.120;2023-08-21T07:10:40;6.37;;;2.03;;
19043;SDS011;9654;52.302;8.120;2023-08-21T07:13:07;5.13;;;1.77;;
19043;SDS011;9654;52.302;8.120;2023-08-21T07:15:34;2.80;;;1.73;;
19043;SDS011;9654;52.302;8.120;2023-08-21T07:18:01;10.73;;;2.30;;
19043;SDS011;9654;52.302;8.120;2023-08-21T07:20:28;9.27;;;1.80;;
19043;SDS011;9654;52.302;8.120;2023-08-21T07:22:54;6.90;;;1.80;;
19043;SDS011;9654;52.302;8.120;2023-08-21T07:25:23;4.60;;;1.43;;
19043;SDS011;9654;52.302;8.120;2023-08-21T07:27:50;8.57;;;2.13;;
19043;SDS011;9654;52.302;8.120;2023-08-21T07:30:18;5.20;;;1.80;;
19043;SDS011;9654;52.302;8.120;2023-08-21T07:32:45;7.57;;;1.90;;
19043;SDS011;9654;52.302;8.120;2023-08-21T07:35:12;8.83;;;2.10;;
19043;SDS011;9654;52.302;8.120;2023-08-21T07:37:39;6.23;;;1.80;;
19043;SDS011;9654;52.302;8.120;2023-08-21T07:40:09;8.10;;;2.50;;
19043;SDS011;9654;52.302;8.120;2023-08-21T07:42:37;3.50;;;1.40;;
19043;SDS011;9654;52.302;8.120;2023-08-21T07:45:05;7.23;;;1.60;;
19043;SDS011;9654;52.302;8.120;2023-08-21T07:47:32;7.23;;;2.37;;
19043;SDS011;9654;52.302;8.120;2023-08-21T07:49:59;8.83;;;1.53;;
19043;SDS011;9654;52.302;8.120;2023-08-21T07:52:26;7.70;;;1.87;;
19043;SDS011;9654;52.302;8.120;2023-08-21T07:54:52;6.17;;;1.73;;
19043;SDS011;9654;52.302;8.120;2023-08-21T07:57:20;3.47;;;1.43;;
19043;SDS011;9654;52.302;8.120;2023-08-21T07:59:48;11.53;;;2.43;;
19043;SDS011;9654;52.302;8.120;2023-08-21T08:02:14;4.85;;;1.77;;
19043;SDS011;9654;52.302;8.120;2023-08-21T08:04:42;7.93;;;1.70;;
19043;SDS011;9654;52.302;8.120;2023-08-21T08:07:09;7.53;;;1.60;;
19043;SDS011;9654;52.302;8.120;2023-08-21T08:09:36;6.22;;;1.95;;
19043;SDS011;9654;52.302;8.120;2023-08-21T08:12:03;8.68;;;1.83;;
19043;SDS011;9654;52.302;8.120;2023-08-21T08:14:30;5.90;;;1.63;;
19043;SDS011;9654;52.302;8.120;2023-08-21T08:16:58;3.92;;;1.20;;
19043;SDS011;9654;52.302;8.120;2023-08-21T08:19:25;4.65;;;1.50;;
19043;SDS011;9654;52.302;8.120;2023-08-21T08:21:51;5.30;;;1.45;;
19043;SDS011;9654;52.302;8.120;2023-08-21T08:24:18;3.45;;;1.02;;
19043;SDS011;9654;52.302;8.120;2023-08-21T08:26:45;7.97;;;1.67;;
19043;SDS011;9654;52.302;8.120;2023-08-21T08:29:12;6.80;;;1.50;;
19043;SDS011;9654;52.302;8.120;2023-08-21T08:31:38;4.57;;;1.10;;
19043;SDS011;9654;52.302;8.120;2023-08-21T08:34:06;5.35;;;1.35;;
19043;SDS011;9654;52.302;8.120;2023-08-21T08:36:34;10.35;;;1.25;;
19043;SDS011;9654;52.302;8.120;2023-08-21T08:39:01;3.85;;;1.38;;
19043;SDS011;9654;52.302;8.120;2023-08-21T08:41:30;2.92;;;1.30;;
19043;SDS011;9654;52.302;8.120;2023-08-21T08:43:59;4.03;;;1.00;;
19043;SDS011;9654;52.302;8.120;2023-08-21T08:46:28;3.67;;;1.25;;
19043;SDS011;9654;52.302;8.120;2023-08-21T08:48:56;4.00;;;1.10;;
19043;SDS011;9654;52.302;8.120;2023-08-21T08:51:24;6.45;;;1.30;;
19043;SDS011;9654;52.302;8.120;2023-08-21T08:53:51;4.50;;;1.20;;
19043;SDS011;9654;52.302;8.120;2023-08-21T08:56:18;2.05;;;0.80;;
19043;SDS011;9654;52.302;8.120;2023-08-21T08:58:45;3.30;;;1.10;;
19043;SDS011;9654;52.302;8.120;2023-08-21T09:01:13;3.85;;;1.08;;
19043;SDS011;9654;52.302;8.120;2023-08-21T09:03:39;3.53;;;1.27;;
19043;SDS011;9654;52.302;8.120;2023-08-21T09:06:06;4.43;;;1.40;;
19043;SDS011;9654;52.302;8.120;2023-08-21T09:08:34;4.43;;;1.20;;
19043;SDS011;9654;52.302;8.120;2023-08-21T09:11:02;2.08;;;1.10;;
19043;SDS011;9654;52.302;8.120;2023-08-21T09:13:29;2.83;;;0.98;;
19043;SDS011;9654;52.302;8.120;2023-08-21T09:15:58;4.10;;;1.30;;
19043;SDS011;9654;52.302;8.120;2023-08-21T09:18:25;4.05;;;1.25;;
19043;SDS011;9654;52.302;8.120;2023-08-21T09:20:52;4.20;;;1.10;;
19043;SDS011;9654;52.302;8.120;2023-08-21T09:23:18;3.97;;;1.20;;
19043;SDS011;9654;52.302;8.120;2023-08-21T09:25:47;2.85;;;0.98;;
19043;SDS011;9654;52.302;8.120;2023-08-21T09:28:14;4.40;;;0.95;;
19043;SDS011;9654;52.302;8.120;2023-08-21T09:30:44;2.50;;;1.15;;
19043;SDS011;9654;52.302;8.120;2023-08-21T09:33:12;2.78;;;1.17;;
19043;SDS011;9654;52.302;8.120;2023-08-21T09:35:39;2.60;;;1.00;;
19043;SDS011;9654;52.302;8.120;2023-08-21T09:38:08;4.65;;;0.93;;
19043;SDS011;9654;52.302;8.120;2023-08-21T09:40:38;2.35;;;1.00;;
19043;SDS011;9654;52.302;8.120;2023-08-21T09:43:10;4.20;;;1.10;;
19043;SDS011;9654;52.302;8.120;2023-08-21T09:45:37;2.75;;;1.00;;
19043;SDS011;9654;52.302;8.120;2023-08-21T09:48:04;3.85;;;1.13;;
19043;SDS011;9654;52.302;8.120;2023-08-21T09:50:32;6.05;;;1.20;;
19043;SDS011;9654;52.302;8.120;2023-08-21T09:52:59;1.95;;;1.17;;
19043;SDS011;9654;52.302;8.120;2023-08-21T09:55:28;2.30;;;0.82;;
19043;SDS011;9654;52.302;8.120;2023-08-21T09:57:58;1.67;;;0.80;;
19043;SDS011;9654;52.302;8.120;2023-08-21T10:00:30;4.05;;;1.02;;
19043;SDS011;9654;52.302;8.120;2023-08-21T10:02:59;3.88;;;1.35;;
19043;SDS011;9654;52.302;8.120;2023-08-21T10:05:28;3.30;;;0.93;;
19043;SDS011;9654;52.302;8.120;2023-08-21T10:07:56;2.00;;;0.95;;
19043;SDS011;9654;52.302;8.120;2023-08-21T10:10:27;4.47;;;0.90;;
19043;SDS011;9654;52.302;8.120;2023-08-21T10:12:55;5.45;;;1.38;;
19043;SDS011;9654;52.302;8.120;2023-08-21T10:15:22;3.50;;;1.20;;
19043;SDS011;9654;52.302;8.120;2023-08-21T10:17:50;5.28;;;1.35;;
19043;SDS011;9654;52.302;8.120;2023-08-21T10:20:20;4.35;;;1.20;;
19043;SDS011;9654;52.302;8.120;2023-08-21T10:22:49;2.78;;;0.93;;
19043;SDS011;9654;52.302;8.120;2023-08-21T10:25:19;4.97;;;1.23;;
19043;SDS011;9654;52.302;8.120;2023-08-21T10:27:49;7.53;;;1.65;;
19043;SDS011;9654;52.302;8.120;2023-08-21T10:30:19;6.47;;;1.23;;
19043;SDS011;9654;52.302;8.120;2023-08-21T10:32:47;6.78;;;1.10;;
19043;SDS011;9654;52.302;8.120;2023-08-21T10:35:17;2.33;;;1.20;;
19043;SDS011;9654;52.302;8.120;2023-08-21T10:40:35;2.20;;;1.20;;
19043;SDS011;9654;52.302;8.120;2023-08-21T10:43:02;2.83;;;1.20;;
19043;SDS011;9654;52.302;8.120;2023-08-21T10:45:29;5.38;;;1.33;;
19043;SDS011;9654;52.302;8.120;2023-08-21T10:47:58;6.43;;;1.45;;
19043;SDS011;9654;52.302;8.120;2023-08-21T10:50:27;5.90;;;1.17;;
19043;SDS011;9654;52.302;8.120;2023-08-21T10:52:54;6.25;;;1.17;;
19043;SDS011;9654;52.302;8.120;2023-08-21T10:55:20;3.75;;;1.05;;
19043;SDS011;9654;52.302;8.120;2023-08-21T10:57:48;1.38;;;1.05;;
19043;SDS011;9654;52.302;8.120;2023-08-21T11:00:15;1.75;;;1.00;;
19043;SDS011;9654;52.302;8.120;2023-08-21T11:02:44;3.00;;;0.98;;
19043;SDS011;9654;52.302;8.120;2023-08-21T11:05:12;5.10;;;1.10;;
19043;SDS011;9654;52.302;8.120;2023-08-21T11:07:41;1.58;;;0.90;;
19043;SDS011;9654;52.302;8.120;2023-08-21T11:10:10;2.95;;;1.52;;
19043;SDS011;9654;52.302;8.120;2023-08-21T11:12:39;3.25;;;1.40;;
19043;SDS011;9654;52.302;8.120;2023-08-21T11:15:15;3.67;;;1.60;;
19043;SDS011;9654;52.302;8.120;2023-08-21T11:17:41;9.88;;;1.50;;
19043;SDS011;9654;52.302;8.120;2023-08-21T11:20:08;5.13;;;1.45;;
19043;SDS011;9654;52.302;8.120;2023-08-21T11:22:36;5.63;;;1.45;;
19043;SDS011;9654;52.302;8.120;2023-08-21T11:25:04;5.55;;;1.95;;
19043;SDS011;9654;52.302;8.120;2023-08-21T11:27:32;5.22;;;1.55;;
19043;SDS011;9654;52.302;8.120;2023-08-21T11:29:59;7.70;;;1.95;;
19043;SDS011;9654;52.302;8.120;2023-08-21T11:32:27;5.43;;;1.15;;
19043;SDS011;9654;52.302;8.120;2023-08-21T11:34:54;2.40;;;1.20;;
19043;SDS011;9654;52.302;8.120;2023-08-21T11:37:22;1.38;;;0.93;;
19043;SDS011;9654;52.302;8.120;2023-08-21T11:39:50;2.47;;;1.00;;
19043;SDS011;9654;52.302;8.120;2023-08-21T11:42:19;4.88;;;2.00;;
19043;SDS011;9654;52.302;8.120;2023-08-21T11:44:49;8.43;;;1.70;;
19043;SDS011;9654;52.302;8.120;2023-08-21T11:47:18;2.33;;;1.40;;
19043;SDS011;9654;52.302;8.120;2023-08-21T11:49:46;4.88;;;1.38;;
19043;SDS011;9654;52.302;8.120;2023-08-21T11:52:17;2.78;;;1.17;;
19043;SDS011;9654;52.302;8.120;2023-08-21T11:54:46;3.67;;;1.40;;
19043;SDS011;9654;52.302;8.120;2023-08-21T11:57:14;3.95;;;1.40;;
19043;SDS011;9654;52.302;8.120;2023-08-21T11:59:43;4.35;;;1.52;;
19043;SDS011;9654;52.302;8.120;2023-08-21T12:02:17;5.65;;;1.55;;
19043;SDS011;9654;52.302;8.120;2023-08-21T12:04:44;5.18;;;1.00;;
19043;SDS011;9654;52.302;8.120;2023-08-21T12:07:17;2.38;;;1.10;;
19043;SDS011;9654;52.302;8.120;2023-08-21T12:09:46;4.72;;;1.45;;
19043;SDS011;9654;52.302;8.120;2023-08-21T12:12:14;4.30;;;1.23;;
19043;SDS011;9654;52.302;8.120;2023-08-21T12:14:40;4.70;;;1.45;;
19043;SDS011;9654;52.302;8.120;2023-08-21T12:17:09;5.65;;;1.17;;
19043;SDS011;9654;52.302;8.120;2023-08-21T12:19:35;3.08;;;1.10;;
19043;SDS011;9654;52.302;8.120;2023-08-21T12:22:03;3.28;;;1.10;;
19043;SDS011;9654;52.302;8.120;2023-08-21T12:24:29;5.18;;;0.93;;
19043;SDS011;9654;52.302;8.120;2023-08-21T12:26:56;2.85;;;1.13;;
19043;SDS011;9654;52.302;8.120;2023-08-21T12:29:23;3.33;;;1.13;;
19043;SDS011;9654;52.302;8.120;2023-08-21T12:31:51;5.10;;;1.75;;
19043;SDS011;9654;52.302;8.120;2023-08-21T12:34:18;5.88;;;1.20;;
19043;SDS011;9654;52.302;8.120;2023-08-21T12:36:45;3.92;;;1.40;;
19043;SDS011;9654;52.302;8.120;2023-08-21T12:39:12;4.38;;;1.15;;
19043;SDS011;9654;52.302;8.120;2023-08-21T12:41:41;2.35;;;1.10;;
19043;SDS011;9654;52.302;8.120;2023-08-21T12:44:07;3.58;;;1.20;;
19043;SDS011;9654;52.302;8.120;2023-08-21T12:46:34;3.38;;;1.40;;
19043;SDS011;9654;52.302;8.120;2023-08-21T12:49:02;8.20;;;1.65;;
19043;SDS011;9654;52.302;8.120;2023-08-21T12:51:29;4.63;;;1.65;;
19043;SDS011;9654;52.302;8.120;2023-08-21T12:53:56;2.28;;;1.23;;
19043;SDS011;9654;52.302;8.120;2023-08-21T12:56:23;2.60;;;1.05;;
19043;SDS011;9654;52.302;8.120;2023-08-21T12:58:50;5.43;;;1.20;;
19043;SDS011;9654;52.302;8.120;2023-08-21T13:01:17;4.03;;;1.20;;
19043;SDS011;9654;52.302;8.120;2023-08-21T13:03:44;5.60;;;1.30;;
19043;SDS011;9654;52.302;8.120;2023-08-21T13:06:13;3.45;;;1.00;;
19043;SDS011;9654;52.302;8.120;2023-08-21T13:08:40;4.22;;;1.23;;
19043;SDS011;9654;52.302;8.120;2023-08-21T13:11:07;3.25;;;1.13;;
19043;SDS011;9654;52.302;8.120;2023-08-21T13:13:35;2.05;;;1.08;;
19043;SDS011;9654;52.302;8.120;2023-08-21T13:16:02;2.10;;;1.08;;
19043;SDS011;9654;52.302;8.120;2023-08-21T13:18:29;2.85;;;1.20;;
19043;SDS011;9654;52.302;8.120;2023-08-21T13:20:56;7.82;;;1.67;;
19043;SDS011;9654;52.302;8.120;2023-08-21T13:23:24;2.25;;;1.05;;
19043;SDS011;9654;52.302;8.120;2023-08-21T13:25:51;4.10;;;1.15;;
19043;SDS011;9654;52.302;8.120;2023-08-21T13:28:18;2.65;;;1.00;;
19043;SDS011;9654;52.302;8.120;2023-08-21T13:30:44;2.40;;;1.38;;
19043;SDS011;9654;52.302;8.120;2023-08-21T13:33:11;1.70;;;0.98;;
19043;SDS011;9654;52.302;8.120;2023-08-21T13:35:40;3.95;;;1.17;;
19043;SDS011;9654;52.302;8.120;2023-08-21T13:38:07;2.13;;;1.00;;
19043;SDS011;9654;52.302;8.120;2023-08-21T13:40:35;3.97;;;1.25;;
19043;SDS011;9654;52.302;8.120;2023-08-21T13:43:01;3.85;;;1.00;;
19043;SDS011;9654;52.302;8.120;2023-08-21T13:45:28;2.88;;;1.30;;
19043;SDS011;9654;52.302;8.120;2023-08-21T13:47:56;2.70;;;1.17;;
19043;SDS011;9654;52.302;8.120;2023-08-21T13:50:23;4.82;;;1.20;;
19043;SDS011;9654;52.302;8.120;2023-08-21T13:52:52;2.72;;;1.23;;
19043;SDS011;9654;52.302;8.120;2023-08-21T13:55:19;1.63;;;1.23;;
19043;SDS011;9654;52.302;8.120;2023-08-21T13:57:48;4.00;;;1.30;;
19043;SDS011;9654;52.302;8.120;2023-08-21T14:00:15;4.97;;;1.10;;
19043;SDS011;9654;52.302;8.120;2023-08-21T14:02:42;4.18;;;1.00;;
19043;SDS011;9654;52.302;8.120;2023-08-21T14:05:10;2.08;;;0.73;;
19043;SDS011;9654;52.302;8.120;2023-08-21T14:07:37;3.35;;;1.27;;
19043;SDS011;9654;52.302;8.120;2023-08-21T14:10:04;3.63;;;1.05;;
19043;SDS011;9654;52.302;8.120;2023-08-21T14:12:31;2.25;;;0.68;;
19043;SDS011;9654;52.302;8.120;2023-08-21T14:14:59;1.95;;;1.05;;
19043;SDS011;9654;52.302;8.120;2023-08-21T14:17:26;3.47;;;1.17;;
19043;SDS011;9654;52.302;8.120;2023-08-21T14:19:53;3.40;;;1.02;;
19043;SDS011;9654;52.302;8.120;2023-08-21T14:22:20;2.53;;;1.40;;
19043;SDS011;9654;52.302;8.120;2023-08-21T14:24:47;3.08;;;1.30;;
19043;SDS011;9654;52.302;8.120;2023-08-21T14:27:14;4.45;;;1.55;;
19043;SDS011;9654;52.302;8.120;2023-08-21T14:29:41;3.97;;;1.20;;
19043;SDS011;9654;52.302;8.120;2023-08-21T14:32:10;4.63;;;1.20;;
19043;SDS011;9654;52.302;8.120;2023-08-21T14:34:37;2.00;;;0.98;;
19043;SDS011;9654;52.302;8.120;2023-08-21T14:37:03;3.05;;;1.10;;
19043;SDS011;9654;52.302;8.120;2023-08-21T14:39:30;3.03;;;1.23;;
19043;SDS011;9654;52.302;8.120;2023-08-21T14:41:58;1.70;;;1.10;;
19043;SDS011;9654;52.302;8.120;2023-08-21T14:44:26;9.25;;;1.40;;
19043;SDS011;9654;52.302;8.120;2023-08-21T14:46:53;2.65;;;1.10;;
19043;SDS011;9654;52.302;8.120;2023-08-21T14:49:22;2.70;;;1.25;;
19043;SDS011;9654;52.302;8.120;2023-08-21T14:51:49;5.57;;;1.58;;
19043;SDS011;9654;52.302;8.120;2023-08-21T14:54:16;3.28;;;0.90;;
19043;SDS011;9654;52.302;8.120;2023-08-21T14:56:43;2.97;;;1.85;;
19043;SDS011;9654;52.302;8.120;2023-08-21T14:59:10;3.97;;;1.17;;
19043;SDS011;9654;52.302;8.120;2023-08-21T15:01:37;2.47;;;0.95;;
19043;SDS011;9654;52.302;8.120;2023-08-21T15:04:05;3.97;;;1.00;;